Time;durP1;ratioP1;P1;durP2;ratioP2;P2;SDS_P1;SDS_P2;PMS_P1;PMS_P2;Temp;Humidity;BMP_temperature;BMP_pressure;BME280_temperature;BME280_humidity;BME280_pressure;Samples;Min_cycle;Max_cycle;Signal;HPM_P1;HPM_P2
2021/03/24 00:01:46;;;;;;;29.23;21.13;;;;;;;7.61;100.00;98711.25;5075888;28;20262;-73
2021/03/24 00:04:13;;;;;;;31.33;21.50;;;;;;;7.41;100.00;98719.06;5090873;28;20243;-74
2021/03/24 00:06:40;;;;;;;30.50;20.83;;;;;;;7.49;100.00;98723.84;5076314;28;20290;-74
2021/03/24 00:09:13;;;;;;;28.03;20.73;;;;;;;7.53;100.00;98719.38;5075228;28;20295;-74
2021/03/24 00:11:39;;;;;;;32.33;23.07;;;;;;;7.45;100.00;98723.63;5074495;28;20243;-74
2021/03/24 00:14:05;;;;;;;34.33;21.33;;;;;;;7.43;100.00;98722.28;5073438;28;20205;-73
2021/03/24 00:16:31;;;;;;;33.13;21.33;;;;;;;7.37;100.00;98727.09;5073292;28;20253;-73
2021/03/24 00:18:58;;;;;;;30.63;20.73;;;;;;;7.37;100.00;98727.09;5074808;28;20205;-73
2021/03/24 00:21:24;;;;;;;29.90;21.80;;;;;;;7.38;100.00;98722.41;5075177;28;20262;-73
2021/03/24 00:23:50;;;;;;;33.47;21.57;;;;;;;7.36;100.00;98725.44;5075414;28;20724;-74
2021/03/24 00:26:16;;;;;;;32.23;22.17;;;;;;;7.40;100.00;98725.66;5073659;28;20320;-74
2021/03/24 00:28:42;;;;;;;31.50;21.50;;;;;;;7.28;100.00;98723.38;5078644;28;20235;-73
2021/03/24 00:31:09;;;;;;;32.60;22.60;;;;;;;7.28;100.00;98725.34;5078518;28;20254;-73
2021/03/24 00:33:35;;;;;;;33.77;22.43;;;;;;;7.48;100.00;98716.72;5076965;28;20208;-73
2021/03/24 00:36:01;;;;;;;34.43;21.63;;;;;;;7.57;100.00;98720.41;5094591;28;20688;-73
2021/03/24 00:38:27;;;;;;;32.27;23.00;;;;;;;7.60;100.00;98720.63;5092939;28;20247;-72
2021/03/24 00:40:57;;;;;;;31.30;22.27;;;;;;;7.56;100.00;98719.59;5086135;28;20244;-73
2021/03/24 00:43:24;;;;;;;33.10;22.43;;;;;;;7.54;100.00;98721.81;5074842;28;20232;-73
2021/03/24 00:45:50;;;;;;;32.00;22.43;;;;;;;7.57;100.00;98718.44;5076208;28;20257;-74
2021/03/24 00:48:27;;;;;;;32.50;22.80;;;;;;;7.67;100.00;98726.50;5073694;28;20225;-73
2021/03/24 00:50:54;;;;;;;32.83;22.67;;;;;;;7.77;100.00;98720.81;5072111;28;20209;-73
2021/03/24 00:53:20;;;;;;;32.37;22.77;;;;;;;7.71;100.00;98712.97;5071670;28;20304;-72
2021/03/24 00:55:48;;;;;;;31.27;22.37;;;;;;;7.48;100.00;98709.28;5071866;28;20205;-73
2021/03/24 00:58:15;;;;;;;33.67;23.63;;;;;;;7.42;100.00;98706.94;5054852;28;20278;-73
2021/03/24 01:34:12;;;;;;;37.47;23.87;;;;;;;7.63;100.00;98692.53;5110364;27;20491;-74
2021/03/24 01:36:38;;;;;;;36.77;22.33;;;;;;;7.73;100.00;98697.00;5092804;28;20241;-74
2021/03/24 01:39:05;;;;;;;36.30;23.00;;;;;;;7.66;100.00;98688.38;5093235;28;20208;-74
2021/03/24 01:41:31;;;;;;;33.60;23.13;;;;;;;7.71;100.00;98689.09;5111358;28;20687;-74
2021/03/24 01:43:57;;;;;;;31.20;22.10;;;;;;;7.65;100.00;98687.53;5109668;28;20816;-74
2021/03/24 01:46:39;;;;;;;36.30;23.53;;;;;;;7.51;100.00;98688.66;5093084;28;20255;-74
2021/03/24 01:49:27;;;;;;;31.43;22.80;;;;;;;7.51;100.00;98678.50;5109667;28;20204;-74
2021/03/24 01:52:03;;;;;;;33.93;23.50;;;;;;;7.62;100.00;98685.41;5111742;28;20223;-73
2021/03/24 01:54:39;;;;;;;35.90;22.67;;;;;;;7.38;100.00;98684.78;5111217;28;20211;-74
2021/03/24 01:57:08;;;;;;;34.00;23.70;;;;;;;7.49;100.00;98686.22;5110305;28;20700;-74
2021/03/24 01:59:36;;;;;;;35.93;22.80;;;;;;;7.36;100.00;98687.00;5109696;28;20214;-72
2021/03/24 02:02:07;;;;;;;32.13;22.37;;;;;;;7.34;100.00;98683.75;5111897;28;20728;-74
2021/03/24 02:04:34;;;;;;;31.10;21.83;;;;;;;7.42;100.00;98683.06;5094297;28;20278;-73
2021/03/24 02:07:05;;;;;;;32.30;22.70;;;;;;;7.44;100.00;98672.59;5112311;28;20228;-73
2021/03/24 02:09:39;;;;;;;35.10;23.20;;;;;;;7.43;100.00;98673.69;5110752;28;20850;-73
2021/03/24 02:12:14;;;;;;;36.10;22.23;;;;;;;7.39;100.00;98680.13;5110793;28;20288;-73
2021/03/24 02:14:48;;;;;;;31.17;21.97;;;;;;;7.39;100.00;98686.41;5111702;28;20211;-72
2021/03/24 02:17:17;;;;;;;34.53;23.70;;;;;;;7.41;100.00;98684.16;5111861;28;20231;-74
2021/03/24 02:19:51;;;;;;;33.87;22.87;;;;;;;7.42;100.00;98682.25;5112572;28;20208;-74
2021/03/24 02:22:23;;;;;;;34.27;23.67;;;;;;;7.52;100.00;98682.06;5109142;28;20204;-74
2021/03/24 02:25:01;;;;;;;34.97;23.40;;;;;;;7.54;100.00;98686.13;5110715;28;20296;-73
2021/03/24 02:27:34;;;;;;;35.40;22.50;;;;;;;7.57;100.00;98688.25;5109457;28;20277;-72
2021/03/24 02:30:04;;;;;;;30.03;21.97;;;;;;;7.62;100.00;98682.66;5108697;28;20204;-72
2021/03/24 02:32:35;;;;;;;30.80;21.07;;;;;;;7.64;100.00;98688.69;5108733;28;20319;-72
2021/03/24 02:35:13;;;;;;;32.47;21.10;;;;;;;7.56;100.00;98694.03;5108918;28;20199;-73
2021/03/24 02:37:40;;;;;;;33.10;21.40;;;;;;;7.60;100.00;98692.31;5110536;28;20228;-73
2021/03/24 02:40:10;;;;;;;30.47;22.03;;;;;;;7.65;100.00;98695.78;5109096;28;20234;-73
2021/03/24 02:42:39;;;;;;;31.90;22.10;;;;;;;7.67;100.00;98690.81;5090658;28;20204;-74
2021/03/24 02:45:09;;;;;;;32.57;22.37;;;;;;;7.52;100.00;98691.09;5079104;28;20677;-74
2021/03/24 02:47:36;;;;;;;34.00;22.47;;;;;;;7.34;100.00;98694.72;5074300;28;20260;-73
2021/03/24 02:50:04;;;;;;;32.67;22.43;;;;;;;7.51;100.00;98694.16;5074310;28;20209;-73
2021/03/24 02:52:30;;;;;;;31.23;22.63;;;;;;;7.51;100.00;98694.16;5074324;28;20316;-74
2021/03/24 02:54:57;;;;;;;31.83;22.43;;;;;;;7.42;100.00;98694.03;5073912;28;20296;-73
2021/03/24 02:57:23;;;;;;;33.27;22.47;;;;;;;7.59;100.00;98690.72;5056204;28;20229;-73
2021/03/24 02:59:52;;;;;;;29.27;21.83;;;;;;;7.66;100.00;98694.69;5073107;28;20642;-73
2021/03/24 03:02:22;;;;;;;31.53;21.73;;;;;;;7.79;100.00;98693.06;5073899;28;20280;-73
2021/03/24 03:04:51;;;;;;;35.13;22.17;;;;;;;7.88;100.00;98697.50;5074001;28;20245;-73
2021/03/24 03:07:29;;;;;;;32.10;20.93;;;;;;;7.63;100.00;98689.78;5074123;28;20308;-73
2021/03/24 03:10:03;;;;;;;30.87;21.53;;;;;;;7.69;100.00;98691.31;5074138;28;20284;-73
2021/03/24 03:12:48;;;;;;;31.37;22.00;;;;;;;7.68;100.00;98695.16;5074063;28;20260;-74
2021/03/24 03:15:35;;;;;;;29.80;23.03;;;;;;;7.69;100.00;98691.31;5073944;28;20213;-73
2021/03/24 03:18:10;;;;;;;30.93;22.30;;;;;;;7.74;100.00;98698.63;5073597;28;20736;-73
2021/03/24 03:20:43;;;;;;;31.60;21.57;;;;;;;7.78;100.00;98700.47;5073922;28;20205;-73
2021/03/24 03:23:14;;;;;;;35.03;21.43;;;;;;;7.70;100.00;98698.41;5073845;28;20791;-74
2021/03/24 03:25:46;;;;;;;30.43;21.60;;;;;;;7.78;100.00;98697.72;5073982;28;20239;-73
2021/03/24 03:28:17;;;;;;;34.50;23.63;;;;;;;7.79;100.00;98696.59;5073515;28;20721;-74
2021/03/24 03:30:49;;;;;;;29.60;21.90;;;;;;;7.76;100.00;98696.38;5073764;28;20347;-74
2021/03/24 03:33:17;;;;;;;31.63;22.20;;;;;;;7.66;100.00;98702.94;5073167;28;20225;-74
2021/03/24 03:35:44;;;;;;;32.73;23.07;;;;;;;7.52;100.00;98695.78;5076440;28;20296;-73
2021/03/24 03:38:15;;;;;;;31.27;22.10;;;;;;;7.52;100.00;98690.31;5098805;28;20277;-73
2021/03/24 03:40:43;;;;;;;31.63;22.13;;;;;;;7.38;100.00;98690.28;5105211;28;20165;-73
2021/03/24 03:43:14;;;;;;;32.83;22.60;;;;;;;7.52;100.00;98695.78;5117728;28;20200;-74
2021/03/24 03:45:43;;;;;;;32.87;23.30;;;;;;;7.33;100.00;98693.13;5108968;28;20208;-73
2021/03/24 03:48:12;;;;;;;32.00;23.37;;;;;;;7.34;100.00;98689.25;5094133;28;20263;-74
2021/03/24 03:50:40;;;;;;;32.70;22.87;;;;;;;7.42;100.00;98688.56;5093821;28;20208;-73
2021/03/24 03:53:24;;;;;;;32.30;22.03;;;;;;;7.50;100.00;98687.84;5093240;28;20396;-72
2021/03/24 03:56:14;;;;;;;30.17;21.97;;;;;;;7.53;100.00;98687.25;5092784;28;20309;-72
2021/03/24 03:58:56;;;;;;;31.80;22.83;;;;;;;7.54;100.00;98680.63;5093772;28;20208;-72
2021/03/24 04:01:36;;;;;;;32.90;22.53;;;;;;;7.41;100.00;98678.66;5093658;28;20232;-73
2021/03/24 04:04:35;;;;;;;29.93;21.80;;;;;;;7.47;100.00;98688.44;5093499;28;20208;-74
2021/03/24 04:07:08;;;;;;;32.00;22.37;;;;;;;7.60;100.00;98681.34;5093297;28;20772;-74
2021/03/24 04:09:38;;;;;;;32.67;23.20;;;;;;;7.57;100.00;98681.97;5092914;28;20246;-75
2021/03/24 04:12:08;;;;;;;32.27;23.20;;;;;;;7.27;100.00;98675.09;5093897;28;20234;-74
2021/03/24 04:14:36;;;;;;;33.50;22.47;;;;;;;7.37;100.00;98682.34;5092666;28;20250;-74
2021/03/24 04:17:04;;;;;;;32.07;22.47;;;;;;;7.29;100.00;98689.34;5092699;28;20289;-74
2021/03/24 04:19:36;;;;;;;32.23;22.77;;;;;;;7.19;100.00;98686.78;5093025;28;20213;-74
2021/03/24 04:22:03;;;;;;;34.20;22.73;;;;;;;7.03;100.00;98690.91;5093065;28;20557;-74
2021/03/24 04:24:33;;;;;;;33.37;22.80;;;;;;;7.11;100.00;98684.75;5091515;28;20570;-73
2021/03/24 04:27:02;;;;;;;33.13;22.40;;;;;;;7.13;100.00;98690.75;5092745;28;20233;-74
2021/03/24 04:29:43;;;;;;;31.97;22.07;;;;;;;7.19;100.00;98698.56;5093378;28;20231;-74
2021/03/24 04:32:10;;;;;;;31.83;22.40;;;;;;;7.33;100.00;98697.78;5097033;28;20243;-74
2021/03/24 04:34:38;;;;;;;37.50;24.17;;;;;;;7.31;100.00;98683.53;5094208;28;20324;-74
2021/03/24 04:37:17;;;;;;;35.70;23.90;;;;;;;7.33;100.00;98693.13;5093025;28;20263;-75
2021/03/24 04:40:08;;;;;;;33.33;23.57;;;;;;;7.45;100.00;98695.34;5093199;28;20204;-74
2021/03/24 04:42:42;;;;;;;34.77;22.53;;;;;;;7.30;100.00;98690.97;5073130;28;20205;-75
2021/03/24 04:45:19;;;;;;;39.93;23.27;;;;;;;7.34;100.00;98705.72;5072251;28;20201;-74
2021/03/24 04:47:52;;;;;;;32.67;23.50;;;;;;;7.33;100.00;98697.78;5072295;28;20237;-75
2021/03/24 04:50:24;;;;;;;31.70;22.97;;;;;;;7.37;100.00;98705.13;5072269;28;20205;-75
2021/03/24 04:52:51;;;;;;;32.33;21.53;;;;;;;7.24;100.00;98702.34;5071674;28;20267;-74
2021/03/24 04:55:33;;;;;;;30.00;21.77;;;;;;;7.37;100.00;98699.63;5073625;28;20212;-75
2021/03/24 04:58:01;;;;;;;32.93;22.70;;;;;;;7.23;100.00;98701.53;5073298;28;20260;-73
2021/03/24 05:00:44;;;;;;;33.97;23.10;;;;;;;7.22;100.00;98707.31;5074324;28;20255;-74
2021/03/24 05:03:14;;;;;;;32.53;23.07;;;;;;;7.28;100.00;98712.41;5072954;28;20251;-74
2021/03/24 05:05:45;;;;;;;33.67;22.73;;;;;;;7.33;100.00;98711.50;5073415;28;20614;-73
2021/03/24 05:08:29;;;;;;;33.47;23.23;;;;;;;7.30;100.00;98714.88;5073504;28;20283;-74
2021/03/24 05:11:07;;;;;;;28.97;20.67;;;;;;;7.25;100.00;98718.50;5073977;28;20277;-74
2021/03/24 05:13:38;;;;;;;33.43;22.67;;;;;;;7.35;100.00;98717.53;5073118;28;20261;-74
2021/03/24 05:16:13;;;;;;;30.27;21.47;;;;;;;7.25;100.00;98724.00;5082167;28;20279;-74
2021/03/24 05:18:40;;;;;;;31.30;21.70;;;;;;;7.32;100.00;98720.88;5093058;28;20267;-74
2021/03/24 05:21:12;;;;;;;33.53;23.43;;;;;;;7.31;100.00;98725.53;5093939;28;20208;-74
2021/03/24 05:23:39;;;;;;;29.67;22.03;;;;;;;7.47;100.00;98728.81;5093093;28;20205;-75
2021/03/24 05:26:21;;;;;;;33.10;22.53;;;;;;;7.40;100.00;98737.47;5095758;28;20243;-75
2021/03/24 05:28:53;;;;;;;30.47;21.20;;;;;;;7.24;100.00;98724.31;5094113;28;20201;-76
2021/03/24 05:31:23;;;;;;;35.53;22.17;;;;;;;7.51;100.00;98736.16;5094605;28;20713;-76
2021/03/24 05:34:06;;;;;;;28.10;21.10;;;;;;;7.65;100.00;98736.16;5092388;28;20368;-74
2021/03/24 05:36:41;;;;;;;28.80;21.13;;;;;;;7.44;100.00;98738.50;5092743;28;20727;-75
2021/03/24 05:39:22;;;;;;;28.57;20.70;;;;;;;7.44;100.00;98740.41;5093491;28;20295;-74
2021/03/24 05:42:11;;;;;;;32.67;21.87;;;;;;;7.49;100.00;98741.13;5077561;28;20678;-73
2021/03/24 05:44:56;;;;;;;31.90;20.93;;;;;;;7.61;100.00;98738.72;5073023;28;20209;-76
2021/03/24 05:47:57;;;;;;;29.10;21.03;;;;;;;7.74;100.00;98737.91;5077930;28;20239;-74
2021/03/24 05:50:39;;;;;;;29.07;20.93;;;;;;;7.81;100.00;98738.31;5078587;28;20197;-75
2021/03/24 05:53:36;;;;;;;31.50;20.87;;;;;;;7.49;100.00;98732.91;5071315;28;20588;-76
2021/03/24 05:56:58;;;;;;;28.53;19.33;;;;;;;7.63;100.00;98741.97;5071447;28;20236;-75
2021/03/24 05:59:42;;;;;;;26.10;18.97;;;;;;;7.55;100.00;98739.13;5080616;28;20283;-75
2021/03/24 06:02:31;;;;;;;28.30;20.47;;;;;;;7.73;100.00;98738.22;5081474;28;20228;-74
2021/03/24 06:05:05;;;;;;;33.80;20.13;;;;;;;7.89;100.00;98740.38;5081739;28;20276;-74
2021/03/24 06:07:34;;;;;;;30.00;20.30;;;;;;;8.04;100.00;98742.00;5081307;28;20301;-75
2021/03/24 06:10:28;;;;;;;29.73;21.40;;;;;;;7.99;100.00;98737.41;5086142;28;20204;-74
2021/03/24 06:13:02;;;;;;;29.90;21.03;;;;;;;8.08;100.00;98743.03;5092319;28;20311;-74
2021/03/24 06:15:47;;;;;;;31.13;20.60;;;;;;;8.20;100.00;98738.63;5092747;28;20239;-74
2021/03/24 06:18:38;;;;;;;28.97;20.43;;;;;;;8.23;100.00;98740.75;5106369;28;20228;-74
2021/03/24 06:21:17;;;;;;;30.40;20.10;;;;;;;8.13;100.00;98746.47;5118606;28;20201;-73
2021/03/24 06:24:20;;;;;;;27.50;19.23;;;;;;;8.34;100.00;98743.34;5120066;28;20188;-72
2021/03/24 06:26:49;;;;;;;26.17;19.47;;;;;;;8.55;100.00;98742.56;5119847;28;20231;-72
2021/03/24 06:29:31;;;;;;;26.90;20.00;;;;;;;8.70;100.00;98744.16;5111008;28;20268;-73
2021/03/24 06:32:15;;;;;;;26.20;18.77;;;;;;;8.47;100.00;98751.53;5097126;28;20257;-73
2021/03/24 06:34:41;;;;;;;33.17;18.77;;;;;;;8.29;100.00;98751.66;5095559;28;20219;-73
2021/03/24 06:37:07;;;;;;;26.53;19.40;;;;;;;8.21;100.00;98744.94;5097042;28;20311;-73
2021/03/24 06:40:15;;;;;;;25.33;18.23;;;;;;;8.10;100.00;98747.06;5096608;28;20204;-73
2021/03/24 06:43:16;;;;;;;27.10;18.27;;;;;;;8.25;100.00;98747.94;5085290;28;20205;-74
2021/03/24 06:45:54;;;;;;;25.63;19.20;;;;;;;8.65;100.00;98747.03;5085726;28;20253;-75
2021/03/24 06:48:23;;;;;;;26.53;18.80;;;;;;;8.78;100.00;98751.66;5092383;28;20204;-74
2021/03/24 06:51:33;;;;;;;25.57;18.60;;;;;;;8.79;100.00;98753.31;5092714;28;20263;-77
2021/03/24 06:54:06;;;;;;;24.73;18.87;;;;;;;8.77;100.00;98755.56;5091676;28;20318;-76
2021/03/24 06:57:07;;;;;;;25.50;18.27;;;;;;;9.00;100.00;98759.94;5090542;28;20232;-76
2021/03/24 06:59:47;;;;;;;28.77;18.03;;;;;;;8.83;100.00;98759.81;5091868;28;20690;-77
2021/03/24 07:02:35;;;;;;;24.47;17.43;;;;;;;9.01;100.00;98761.59;5092156;28;20277;-75
2021/03/24 07:05:11;;;;;;;22.23;15.67;;;;;;;9.19;100.00;98763.34;5091876;28;20230;-76
2021/03/24 07:07:58;;;;;;;21.90;16.97;;;;;;;9.36;100.00;98762.66;5092142;28;20251;-75
2021/03/24 07:10:46;;;;;;;23.23;17.17;;;;;;;9.33;100.00;98766.03;5092203;28;20262;-75
2021/03/24 07:13:42;;;;;;;24.33;18.60;;;;;;;8.98;100.00;98771.28;5092047;28;20278;-75
2021/03/24 07:16:20;;;;;;;24.93;17.30;;;;;;;9.04;100.00;98770.03;5091778;28;20196;-75
2021/03/24 07:19:31;;;;;;;22.37;17.83;;;;;;;8.98;100.00;98779.53;5091547;28;20212;-76
2021/03/24 07:22:28;;;;;;;23.57;17.27;;;;;;;9.11;100.00;98772.34;5072055;28;20299;-75
2021/03/24 07:25:03;;;;;;;27.83;18.80;;;;;;;9.49;100.00;98767.28;5088731;28;20232;-75
2021/03/24 07:27:48;;;;;;;22.03;16.57;;;;;;;9.95;100.00;98765.75;5091603;28;20258;-75
2021/03/24 07:31:11;;;;;;;21.77;16.93;;;;;;;10.60;100.00;98765.78;5088417;28;20209;-74
2021/03/24 07:33:56;;;;;;;25.23;16.50;;;;;;;11.60;100.00;98750.69;5066103;28;20240;-75
2021/03/24 07:36:56;;;;;;;20.70;16.03;;;;;;;12.85;100.00;98752.69;5066814;28;20220;-75
2021/03/24 07:39:49;;;;;;;22.97;18.17;;;;;;;13.94;100.00;98748.44;5078127;28;20288;-75
2021/03/24 07:42:41;;;;;;;20.83;16.63;;;;;;;13.92;100.00;98745.19;5091177;28;20204;-74
2021/03/24 07:45:12;;;;;;;22.43;17.43;;;;;;;13.44;100.00;98754.19;5089834;28;20860;-73
2021/03/24 07:47:57;;;;;;;21.53;17.37;;;;;;;13.36;100.00;98754.28;5088580;28;20286;-76
2021/03/24 07:50:43;;;;;;;20.17;16.83;;;;;;;13.67;100.00;98758.19;5090178;28;20204;-77
2021/03/24 07:53:12;;;;;;;23.43;19.17;;;;;;;14.79;100.00;98760.38;5089388;28;20212;-73
2021/03/24 07:55:43;;;;;;;21.77;17.85;;;;;;;14.47;100.00;98764.13;5089790;28;20682;-75
2021/03/24 07:58:37;;;;;;;20.35;18.25;;;;;;;14.42;100.00;98758.78;5090205;28;20705;-74
2021/03/24 08:01:18;;;;;;;20.75;18.60;;;;;;;14.49;100.00;98764.59;5090047;28;20213;-73
2021/03/24 08:03:51;;;;;;;25.02;19.50;;;;;;;15.22;100.00;98760.50;5089982;28;20697;-74
2021/03/24 08:06:38;;;;;;;20.13;18.08;;;;;;;14.47;100.00;98764.13;5091229;28;20256;-75
2021/03/24 08:09:20;;;;;;;21.35;18.40;;;;;;;13.82;100.00;98776.97;5090791;28;20210;-74
2021/03/24 08:12:21;;;;;;;20.80;18.23;;;;;;;13.78;100.00;98776.00;5090584;28;20234;-74
2021/03/24 08:15:05;;;;;;;23.02;20.23;;;;;;;14.91;100.00;98780.63;5089379;28;20279;-73
2021/03/24 08:18:07;;;;;;;21.35;18.17;;;;;;;16.54;94.95;98764.56;5090601;28;20220;-75
2021/03/24 08:21:17;;;;;;;20.75;18.52;;;;;;;17.70;85.54;98764.38;5088966;28;20231;-74
2021/03/24 08:24:01;;;;;;;20.23;18.02;;;;;;;18.79;77.14;98759.97;5088551;28;20311;-73
2021/03/24 08:26:52;;;;;;;20.00;17.83;;;;;;;19.00;73.86;98757.47;5088955;28;20668;-75
2021/03/24 08:29:18;;;;;;;19.45;17.45;;;;;;;19.12;70.69;98754.47;5086151;28;20902;-74
2021/03/24 08:32:12;;;;;;;19.02;17.25;;;;;;;18.92;66.21;98745.34;5089678;28;20228;-73
2021/03/24 08:34:45;;;;;;;18.45;16.50;;;;;;;19.12;65.18;98746.84;5089682;28;20208;-72
2021/03/24 08:37:32;;;;;;;18.10;16.48;;;;;;;19.37;65.45;98744.44;5089834;28;20277;-72
2021/03/24 08:40:23;;;;;;;19.02;16.65;;;;;;;18.81;65.18;98738.00;5090167;28;20618;-72
2021/03/24 08:43:07;;;;;;;17.58;15.93;;;;;;;19.19;65.23;98737.75;5068441;28;20315;-71
2021/03/24 08:45:55;;;;;;;18.70;16.90;;;;;;;19.10;62.20;98745.63;5069809;28;20251;-72
2021/03/24 08:48:49;;;;;;;16.55;14.95;;;;;;;19.23;62.70;98742.19;5072356;28;20211;-72
2021/03/24 08:51:36;;;;;;;17.58;15.98;;;;;;;19.03;61.01;98745.53;5070896;28;20245;-71
2021/03/24 08:54:29;;;;;;;18.73;16.77;;;;;;;19.32;61.43;98741.97;5073361;28;20211;-71
2021/03/24 08:57:17;;;;;;;19.05;16.67;;;;;;;19.41;59.54;98739.69;5089664;28;20633;-72
2021/03/24 08:59:51;;;;;;;17.65;15.95;;;;;;;19.54;60.31;98743.03;5070184;28;20201;-71
2021/03/24 09:02:33;;;;;;;16.85;15.35;;;;;;;19.15;58.11;98739.69;5070276;28;20205;-72
2021/03/24 09:05:25;;;;;;;18.25;16.55;;;;;;;19.12;60.27;98735.66;5071817;28;21053;-72
2021/03/24 09:08:26;;;;;;;18.23;16.52;;;;;;;19.43;58.14;98742.91;5088226;28;20221;-71
2021/03/24 09:11:20;;;;;;;17.38;15.57;;;;;;;19.85;57.82;98734.19;5102912;28;20188;-72
2021/03/24 09:14:09;;;;;;;18.45;16.63;;;;;;;19.91;57.26;98736.25;5097051;28;20277;-72
2021/03/24 09:16:47;;;;;;;19.00;17.10;;;;;;;19.95;58.96;98734.31;5090306;28;20224;-71
2021/03/24 09:19:50;;;;;;;18.35;16.33;;;;;;;19.21;57.89;98729.78;5089498;28;20214;-72
2021/03/24 09:22:44;;;;;;;19.50;17.60;;;;;;;19.09;60.73;98725.22;5090882;28;20204;-71
2021/03/24 09:25:28;;;;;;;19.20;17.30;;;;;;;19.40;59.53;98726.84;5089422;28;20201;-74
2021/03/24 09:28:25;;;;;;;17.98;16.08;;;;;;;19.80;58.82;98724.13;5089437;28;20690;-72
2021/03/24 09:31:12;;;;;;;18.30;16.42;;;;;;;19.71;58.55;98715.22;5071220;28;20237;-71
2021/03/24 09:33:47;;;;;;;19.65;17.63;;;;;;;19.80;57.85;98721.31;5070674;28;20224;-73
2021/03/24 09:36:50;;;;;;;19.60;17.80;;;;;;;19.92;57.92;98714.66;5070980;28;20205;-73
2021/03/24 09:39:31;;;;;;;19.10;17.13;;;;;;;19.93;57.37;98713.44;5072607;28;20208;-72
2021/03/24 09:42:05;;;;;;;19.85;17.88;;;;;;;19.55;57.47;98706.25;5075263;28;20693;-72
2021/03/24 09:44:39;;;;;;;19.40;17.50;;;;;;;19.78;56.92;98709.69;5078208;28;20229;-72
2021/03/24 09:47:37;;;;;;;22.95;18.15;;;;;;;19.47;55.63;98701.75;5076232;28;20255;-73
2021/03/24 09:50:21;;;;;;;20.08;17.92;;;;;;;19.47;57.92;98698.16;5074305;28;20239;-72
2021/03/24 09:52:57;;;;;;;20.55;18.48;;;;;;;19.34;56.33;98700.41;5071222;28;20266;-72
2021/03/24 09:55:34;;;;;;;20.38;18.35;;;;;;;19.09;61.69;98700.03;5075206;28;20293;-73
2021/03/24 09:58:19;;;;;;;22.02;19.13;;;;;;;19.29;57.61;98691.50;5075667;28;20271;-71
2021/03/24 10:00:51;;;;;;;19.95;17.95;;;;;;;19.66;59.52;98690.38;5075097;28;20735;-73
2021/03/24 10:03:42;;;;;;;20.85;18.63;;;;;;;19.21;58.51;98685.00;5073975;28;20953;-72
2021/03/24 10:06:18;;;;;;;23.65;19.30;;;;;;;18.91;59.09;98687.00;5074053;28;20209;-73
2021/03/24 10:08:46;;;;;;;22.65;20.23;;;;;;;19.16;60.56;98686.13;5075637;28;20262;-73
2021/03/24 10:11:58;;;;;;;21.50;19.30;;;;;;;18.59;60.27;98677.34;5075160;28;20853;-72
2021/03/24 10:14:36;;;;;;;21.83;19.40;;;;;;;19.24;61.71;98673.03;5072073;28;20288;-72
2021/03/24 10:17:12;;;;;;;23.23;20.33;;;;;;;18.20;65.21;98679.50;5075243;28;20279;-72
2021/03/24 10:19:47;;;;;;;22.42;20.02;;;;;;;18.97;65.61;98672.31;5075155;28;20209;-74
2021/03/24 10:22:21;;;;;;;26.15;20.60;;;;;;;17.84;64.02;98671.69;5075510;28;20208;-73
2021/03/24 10:25:03;;;;;;;26.58;22.23;;;;;;;18.33;62.98;98666.94;5074474;28;20579;-74
2021/03/24 10:27:31;;;;;;;22.70;19.35;;;;;;;18.14;68.88;98653.88;5075223;28;20308;-73
2021/03/24 10:30:07;;;;;;;23.63;20.65;;;;;;;18.06;64.99;98652.13;5089301;28;20628;-73
2021/03/24 10:32:39;;;;;;;24.10;20.83;;;;;;;18.15;64.59;98646.28;5094597;28;20727;-73
2021/03/24 10:35:45;;;;;;;24.05;20.65;;;;;;;17.88;71.16;98637.06;5095655;28;20269;-73
2021/03/24 10:38:28;;;;;;;30.15;21.58;;;;;;;17.44;71.68;98647.00;5115595;28;20247;-73
2021/03/24 10:41:16;;;;;;;22.83;20.30;;;;;;;17.37;71.79;98646.06;5115865;28;20257;-75
2021/03/24 10:44:12;;;;;;;23.40;20.55;;;;;;;17.53;72.41;98642.03;5116305;28;20227;-75
2021/03/24 10:46:46;;;;;;;24.88;19.77;;;;;;;17.12;84.60;98634.41;5122948;28;20285;-73
2021/03/24 10:49:21;;;;;;;23.30;19.95;;;;;;;16.84;80.98;98633.84;5124198;28;20200;-73
2021/03/24 10:52:02;;;;;;;23.90;19.75;;;;;;;16.49;83.48;98633.06;5118066;28;20703;-73
2021/03/24 10:54:33;;;;;;;23.30;19.55;;;;;;;16.82;84.66;98630.59;5115033;28;20199;-73
2021/03/24 10:57:32;;;;;;;29.27;21.00;;;;;;;16.82;81.82;98620.25;5115277;28;20260;-74
2021/03/24 11:00:10;;;;;;;25.63;20.85;;;;;;;16.48;82.08;98625.84;5070088;28;20211;-74
2021/03/24 11:02:56;;;;;;;26.07;22.33;;;;;;;16.77;80.97;98622.53;5114603;28;20259;-73
2021/03/24 11:05:41;;;;;;;28.80;20.77;;;;;;;16.71;87.88;98618.44;5114195;28;20238;-72
2021/03/24 11:08:31;;;;;;;25.07;21.13;;;;;;;16.87;86.55;98608.00;5114636;28;20743;-72
2021/03/24 11:11:23;;;;;;;25.33;21.63;;;;;;;16.92;84.81;98604.91;5096322;28;20208;-74
2021/03/24 11:13:49;;;;;;;28.13;21.17;;;;;;;16.53;86.46;98600.53;5113874;28;20262;-74
2021/03/24 11:16:37;;;;;;;26.63;19.83;;;;;;;16.37;91.57;98602.53;5113808;28;20247;-73
2021/03/24 11:19:37;;;;;;;26.03;20.13;;;;;;;16.57;90.64;98593.03;5113914;28;20672;-73
2021/03/24 11:22:15;;;;;;;22.67;19.90;;;;;;;16.59;92.17;98593.47;5113680;28;20287;-74
2021/03/24 11:25:13;;;;;;;23.67;18.97;;;;;;;16.96;94.06;98589.06;5113560;28;20270;-75
2021/03/24 11:27:55;;;;;;;31.33;19.43;;;;;;;16.77;87.87;98589.09;5114288;28;20224;-74
2021/03/24 11:30:37;;;;;;;26.23;20.00;;;;;;;16.26;86.80;98584.75;5114136;28;20212;-72
2021/03/24 11:33:15;;;;;;;24.77;19.20;;;;;;;16.55;87.85;98578.66;5113412;28;20711;-75
2021/03/24 11:36:04;;;;;;;23.33;20.07;;;;;;;16.35;89.57;98582.56;5113945;28;20214;-72
2021/03/24 11:39:02;;;;;;;24.10;18.83;;;;;;;16.13;87.96;98579.28;5114140;28;20242;-74
2021/03/24 11:41:32;;;;;;;24.83;19.73;;;;;;;15.64;95.84;98575.31;5106100;28;20283;-74
2021/03/24 11:44:10;;;;;;;23.37;19.17;;;;;;;15.99;94.29;98578.97;5114286;28;20262;-74
2021/03/24 11:46:42;;;;;;;25.83;19.57;;;;;;;16.45;93.44;98570.84;5114491;28;20262;-74
2021/03/24 11:49:11;;;;;;;28.57;19.53;;;;;;;16.74;93.26;98570.28;5125152;28;20194;-74
2021/03/24 11:51:57;;;;;;;24.23;19.33;;;;;;;16.47;90.30;98563.78;5135850;28;20196;-74
2021/03/24 11:54:36;;;;;;;25.23;19.40;;;;;;;16.51;94.14;98566.63;5134356;28;20199;-73
2021/03/24 11:57:12;;;;;;;26.30;19.67;;;;;;;16.40;94.89;98562.78;5117128;28;20696;-73
2021/03/24 11:59:47;;;;;;;26.27;20.63;;;;;;;16.23;91.19;98553.66;5113324;28;20207;-73
2021/03/24 12:02:17;;;;;;;31.93;19.83;;;;;;;16.13;97.11;98564.56;5114086;28;20227;-73
2021/03/24 12:05:01;;;;;;;24.37;19.20;;;;;;;16.56;96.82;98552.41;5114129;28;20224;-74
2021/03/24 12:07:45;;;;;;;24.87;19.10;;;;;;;16.12;93.14;98560.97;5113270;28;20228;-73
2021/03/24 12:10:11;;;;;;;26.83;18.33;;;;;;;16.01;90.84;98562.72;5113807;28;20227;-74
2021/03/24 12:12:39;;;;;;;24.93;18.93;;;;;;;15.98;98.44;98552.28;5114421;28;20627;-73
2021/03/24 12:15:17;;;;;;;23.70;19.43;;;;;;;15.48;97.82;98543.91;5113562;28;20203;-72
2021/03/24 12:17:44;;;;;;;23.87;19.37;;;;;;;15.97;97.87;98547.91;5095130;28;20219;-73
2021/03/24 12:20:17;;;;;;;22.17;18.50;;;;;;;16.02;98.86;98542.03;5113091;28;20724;-74
2021/03/24 12:22:53;;;;;;;23.07;18.83;;;;;;;16.15;100.00;98540.75;5113968;28;20207;-73
2021/03/24 12:25:31;;;;;;;24.53;18.13;;;;;;;16.15;100.00;98539.94;5116761;28;20801;-74
2021/03/24 12:28:06;;;;;;;24.07;16.83;;;;;;;16.05;100.00;98534.94;5099247;28;20280;-73
2021/03/24 12:30:45;;;;;;;23.93;17.53;;;;;;;16.19;95.86;98538.84;5099298;28;20235;-73
2021/03/24 12:33:16;;;;;;;26.97;19.03;;;;;;;15.84;97.04;98529.69;5096970;28;20210;-73
2021/03/24 12:35:46;;;;;;;22.43;18.53;;;;;;;15.61;98.60;98520.41;5112870;28;20200;-73
2021/03/24 12:38:16;;;;;;;23.40;18.27;;;;;;;15.74;100.00;98521.09;5113542;28;20235;-72
2021/03/24 12:40:49;;;;;;;26.27;18.00;;;;;;;15.58;100.00;98526.69;5100072;28;20195;-72
2021/03/24 12:43:27;;;;;;;24.97;18.83;;;;;;;15.70;97.14;98511.84;5101130;27;20227;-74